createdAt,value
2023-03-02T00:02:02.080Z,0.46
2023-03-02T00:04:34.612Z,0.40
2023-03-02T00:07:10.364Z,0.34
2023-03-02T00:09:38.422Z,0.41
2023-03-02T00:12:11.086Z,0.44
2023-03-02T00:14:44.112Z,0.41
2023-03-02T00:17:12.208Z,0.57
2023-03-02T00:19:40.339Z,0.61
2023-03-02T00:22:10.087Z,0.65
2023-03-02T00:24:38.808Z,0.72
2023-03-02T00:27:11.464Z,0.70
2023-03-02T00:29:39.419Z,0.65
2023-03-02T00:32:09.174Z,0.59
2023-03-02T00:34:37.248Z,0.64
2023-03-02T00:37:05.291Z,0.65
2023-03-02T00:39:33.316Z,0.68
2023-03-02T00:42:01.366Z,0.64
2023-03-02T00:44:29.581Z,0.59
2023-03-02T00:46:57.644Z,0.72
2023-03-02T00:49:27.095Z,0.72
2023-03-02T00:51:55.124Z,0.67
2023-03-02T00:54:23.080Z,0.71
2023-03-02T00:56:50.990Z,0.83
2023-03-02T00:59:27.296Z,0.76
2023-03-02T01:01:58.312Z,0.71
2023-03-02T01:04:31.028Z,0.72
2023-03-02T01:06:59.093Z,0.78
2023-03-02T01:09:27.091Z,0.92
2023-03-02T01:11:55.093Z,0.83
2023-03-02T01:14:23.222Z,1.00
2023-03-02T01:16:51.314Z,0.83
2023-03-02T01:19:19.501Z,1.00
2023-03-02T01:21:49.063Z,1.00
2023-03-02T01:24:17.114Z,1.02
2023-03-02T01:26:45.098Z,1.10
2023-03-02T01:29:13.059Z,0.99
2023-03-02T01:31:41.090Z,1.03
2023-03-02T01:34:09.354Z,0.95
2023-03-02T01:36:37.387Z,1.00
2023-03-02T01:39:06.859Z,1.02
2023-03-02T01:42:15.241Z,0.94
2023-03-02T01:44:44.742Z,0.97
2023-03-02T01:47:19.048Z,0.81
2023-03-02T01:49:50.001Z,0.78
2023-03-02T01:52:18.498Z,0.89
2023-03-02T01:54:49.954Z,0.95
2023-03-02T01:57:21.390Z,0.89
2023-03-02T01:59:49.768Z,0.77
2023-03-02T02:02:17.778Z,0.71
2023-03-02T02:04:46.449Z,0.77
2023-03-02T02:07:14.476Z,0.72
2023-03-02T02:09:45.053Z,0.80
2023-03-02T02:12:15.905Z,0.62
2023-03-02T02:14:43.897Z,0.66
2023-03-02T02:17:12.398Z,0.63
2023-03-02T02:19:48.712Z,0.72
2023-03-02T02:22:22.520Z,0.74
2023-03-02T02:24:51.485Z,0.69
2023-03-02T02:27:20.824Z,0.73
2023-03-02T02:29:50.384Z,0.68
2023-03-02T02:32:19.358Z,0.64
2023-03-02T02:34:51.093Z,0.63
2023-03-02T02:37:24.294Z,0.61
2023-03-02T02:39:52.711Z,0.53
2023-03-02T02:42:25.022Z,0.57
2023-03-02T02:44:53.598Z,0.53
2023-03-02T02:47:22.627Z,0.53
2023-03-02T02:49:53.320Z,0.62
2023-03-02T02:52:22.479Z,0.58
2023-03-02T02:54:51.411Z,0.61
2023-03-02T02:57:19.534Z,0.56
2023-03-02T02:59:49.868Z,0.48
2023-03-02T03:02:20.929Z,0.45
2023-03-02T03:04:51.433Z,0.63
2023-03-02T03:07:22.549Z,0.50
2023-03-02T03:09:52.554Z,0.46
2023-03-02T03:12:23.978Z,0.29
2023-03-02T03:14:53.368Z,0.17
2023-03-02T03:17:21.738Z,0.23
2023-03-02T03:19:49.859Z,0.23
2023-03-02T03:22:18.162Z,0.16
2023-03-02T03:24:48.026Z,0.20
2023-03-02T03:27:16.871Z,0.16
2023-03-02T03:29:46.986Z,0.14
2023-03-02T03:32:16.520Z,0.04
2023-03-02T03:34:44.539Z,0.06
2023-03-02T03:37:14.341Z,0.03
2023-03-02T03:39:42.468Z,0.03
2023-03-02T03:42:10.608Z,0.03
2023-03-02T03:44:38.554Z,0.03
2023-03-02T03:47:06.898Z,0.04
2023-03-02T03:49:36.472Z,0.13
2023-03-02T03:52:04.842Z,0.05
2023-03-02T03:54:33.005Z,0.04
2023-03-02T03:57:01.000Z,0.00
2023-03-02T03:59:29.130Z,0.25
2023-03-02T04:01:58.418Z,0.28
2023-03-02T04:04:28.007Z,0.22
2023-03-02T04:06:57.432Z,0.29
2023-03-02T04:09:25.745Z,0.23
2023-03-02T04:11:54.971Z,0.10
2023-03-02T04:14:23.707Z,0.09
2023-03-02T04:16:51.795Z,0.15
2023-03-02T04:19:22.393Z,0.02
2023-03-02T04:21:51.871Z,0.00
2023-03-02T04:24:23.393Z,-0.08
2023-03-02T04:26:51.821Z,-0.13
2023-03-02T04:29:19.935Z,-0.14
2023-03-02T04:31:48.729Z,-0.25
2023-03-02T04:34:17.450Z,-0.19
2023-03-02T04:36:45.855Z,-0.25
2023-03-02T04:39:15.061Z,-0.22
2023-03-02T04:41:44.453Z,-0.38
2023-03-02T04:44:12.625Z,-0.31
2023-03-02T04:46:44.158Z,-0.32
2023-03-02T04:49:12.627Z,-0.33
2023-03-02T04:51:41.441Z,-0.33
2023-03-02T04:54:12.037Z,-0.41
2023-03-02T04:56:40.524Z,-0.33
2023-03-02T04:59:09.914Z,-0.33
2023-03-02T05:01:38.868Z,-0.30
2023-03-02T05:04:06.934Z,-0.27
2023-03-02T05:06:35.936Z,-0.23
2023-03-02T05:09:04.915Z,-0.19
2023-03-02T05:11:33.044Z,-0.22
2023-03-02T05:14:02.107Z,-0.24
2023-03-02T05:16:33.077Z,-0.15
2023-03-02T05:19:02.084Z,-0.22
2023-03-02T05:21:31.670Z,-0.24
2023-03-02T05:24:03.872Z,-0.23
2023-03-02T05:26:32.205Z,-0.33
2023-03-02T05:29:00.835Z,-0.35
2023-03-02T05:31:32.086Z,-0.42
2023-03-02T05:34:03.311Z,-0.29
2023-03-02T05:36:31.401Z,-0.41
2023-03-02T05:38:59.580Z,-0.44
2023-03-02T05:41:27.668Z,-0.41
2023-03-02T05:43:56.224Z,-0.42
2023-03-02T05:46:24.328Z,-0.37
2023-03-02T05:48:53.850Z,-0.51
2023-03-02T05:51:21.977Z,-0.53
2023-03-02T05:53:50.346Z,-0.47
2023-03-02T05:56:20.809Z,-0.46
2023-03-02T05:58:48.859Z,-0.44
2023-03-02T06:01:16.946Z,-0.40
2023-03-02T06:03:45.027Z,-0.51
2023-03-02T06:06:14.624Z,-0.50
2023-03-02T06:08:43.297Z,-0.53
2023-03-02T06:11:11.424Z,-0.52
2023-03-02T06:13:39.983Z,-0.43
2023-03-02T06:16:08.848Z,-0.48
2023-03-02T06:18:39.175Z,-0.55
2023-03-02T06:21:08.465Z,-0.55
2023-03-02T06:23:38.638Z,-0.49
2023-03-02T06:26:09.981Z,-0.31
2023-03-02T06:28:51.565Z,-0.26
2023-03-02T06:31:22.311Z,-0.20
2023-03-02T06:33:50.856Z,-0.36
2023-03-02T06:36:21.507Z,-0.41
2023-03-02T06:38:51.638Z,-0.36
2023-03-02T06:41:19.732Z,-0.34
2023-03-02T06:43:50.262Z,-0.27
2023-03-02T06:46:19.828Z,-0.18
2023-03-02T06:48:49.385Z,-0.12
2023-03-02T06:51:18.198Z,-0.08
2023-03-02T06:53:46.625Z,-0.11
2023-03-02T06:56:16.219Z,-0.13
2023-03-02T06:58:44.550Z,-0.01
2023-03-02T07:01:13.389Z,-0.03
2023-03-02T07:03:44.137Z,-0.08
2023-03-02T07:06:12.735Z,-0.06
2023-03-02T07:08:41.500Z,-0.01
2023-03-02T07:11:10.949Z,0.05
2023-03-02T07:13:40.426Z,0.15
2023-03-02T07:16:10.579Z,0.16
2023-03-02T07:18:40.378Z,0.21
2023-03-02T07:21:08.873Z,0.24
2023-03-02T07:23:37.137Z,0.21
2023-03-02T07:26:08.590Z,0.34
2023-03-02T07:28:39.552Z,0.32
2023-03-02T07:31:09.363Z,0.38
2023-03-02T07:33:37.675Z,0.35
2023-03-02T07:36:07.038Z,0.40
2023-03-02T07:38:35.192Z,0.40
2023-03-02T07:41:07.851Z,0.56
2023-03-02T07:43:36.705Z,0.59
2023-03-02T07:46:05.070Z,0.65
2023-03-02T07:48:35.372Z,0.78
2023-03-02T07:51:04.028Z,0.96
2023-03-02T07:53:32.147Z,1.03
2023-03-02T07:56:01.481Z,1.02
2023-03-02T07:58:30.006Z,1.10
2023-03-02T08:00:58.241Z,1.18
2023-03-02T08:03:26.793Z,1.28
2023-03-02T08:05:57.250Z,1.34
2023-03-02T08:08:25.338Z,1.50
2023-03-02T08:10:53.427Z,1.55
2023-03-02T08:13:21.527Z,1.60
2023-03-02T08:15:49.780Z,1.70
2023-03-02T08:18:17.849Z,1.80
2023-03-02T08:20:46.445Z,1.86
2023-03-02T08:23:15.956Z,1.84
2023-03-02T08:25:44.189Z,2.12
2023-03-02T08:28:12.666Z,2.15
2023-03-02T08:30:41.450Z,2.28
2023-03-02T08:33:09.506Z,2.30
2023-03-02T08:35:37.641Z,2.48
2023-03-02T08:38:06.243Z,2.55
2023-03-02T08:40:36.268Z,2.75
2023-03-02T08:43:08.218Z,2.93
2023-03-02T08:45:36.729Z,3.06
2023-03-02T08:48:08.188Z,3.12
2023-03-02T08:50:36.327Z,3.35
2023-03-02T08:53:04.803Z,3.39
2023-03-02T08:55:38.012Z,3.47
2023-03-02T08:58:06.783Z,3.43
2023-03-02T09:00:35.155Z,3.59
2023-03-02T09:03:03.334Z,3.54
2023-03-02T09:05:33.560Z,3.72
2023-03-02T09:08:03.720Z,3.78
2023-03-02T09:10:31.802Z,3.90
2023-03-02T09:13:01.391Z,4.18
2023-03-02T09:15:29.631Z,4.16
2023-03-02T09:17:57.976Z,4.34
2023-03-02T09:20:27.132Z,4.38
2023-03-02T09:22:55.173Z,4.55
2023-03-02T09:25:23.349Z,4.71
2023-03-02T09:27:51.635Z,4.83
2023-03-02T09:30:22.141Z,4.98
2023-03-02T09:32:50.497Z,5.06
2023-03-02T09:35:18.844Z,5.19
2023-03-02T09:37:48.682Z,5.13
2023-03-02T09:40:19.527Z,5.37
2023-03-02T09:43:05.836Z,5.32
2023-03-02T09:45:55.343Z,5.44
2023-03-02T09:48:30.503Z,5.55
2023-03-02T09:51:06.603Z,5.71
2023-03-02T09:53:40.954Z,5.79
2023-03-02T09:56:18.815Z,5.64
2023-03-02T09:58:54.694Z,5.83
2023-03-02T10:01:31.006Z,5.83
2023-03-02T10:04:01.210Z,5.99
2023-03-02T10:06:30.471Z,6.03
2023-03-02T10:08:58.734Z,6.08
2023-03-02T10:11:30.754Z,6.25
2023-03-02T10:14:00.398Z,6.35
2023-03-02T10:16:34.562Z,6.45
2023-03-02T10:19:06.745Z,6.62
2023-03-02T10:21:37.478Z,6.67
2023-03-02T10:24:10.666Z,6.67
2023-03-02T10:26:41.261Z,6.78
2023-03-02T10:29:44.769Z,6.88
2023-03-02T10:32:20.257Z,6.89
2023-03-02T10:34:49.989Z,7.08
2023-03-02T10:37:19.169Z,7.06
2023-03-02T10:39:47.868Z,7.14
2023-03-02T10:42:18.494Z,7.36
2023-03-02T10:44:48.525Z,7.30
2023-03-02T10:47:27.901Z,7.44
2023-03-02T10:49:56.805Z,7.50
2023-03-02T10:52:25.668Z,7.54
2023-03-02T10:55:03.462Z,7.60
2023-03-02T10:57:36.235Z,7.55
2023-03-02T11:00:06.083Z,7.76
2023-03-02T11:02:37.494Z,7.93
2023-03-02T11:05:23.788Z,7.91
2023-03-02T11:07:59.378Z,7.93
2023-03-02T11:10:29.726Z,8.03
2023-03-02T11:12:58.488Z,8.05
2023-03-02T11:15:30.650Z,7.98
2023-03-02T11:18:05.664Z,8.04
2023-03-02T11:20:37.653Z,8.06
2023-03-02T11:23:16.962Z,8.00
2023-03-02T11:25:48.806Z,8.14
2023-03-02T11:28:33.248Z,8.02
2023-03-02T11:31:02.170Z,8.08
2023-03-02T11:33:37.342Z,7.99
2023-03-02T11:36:07.578Z,8.17
2023-03-02T11:38:38.768Z,8.21
2023-03-02T11:41:08.245Z,8.20
2023-03-02T11:43:36.760Z,8.26
2023-03-02T11:46:11.236Z,8.23
2023-03-02T11:48:50.994Z,8.17
2023-03-02T11:51:23.857Z,8.09
2023-03-02T11:53:54.397Z,8.31
2023-03-02T11:56:22.731Z,8.24
2023-03-02T11:58:54.674Z,8.12
2023-03-02T12:01:24.301Z,7.98
2023-03-02T12:03:53.952Z,7.76
2023-03-02T12:06:38.678Z,8.06
2023-03-02T12:09:35.312Z,8.03
2023-03-02T12:12:23.858Z,8.10
2023-03-02T12:14:55.399Z,8.13
2023-03-02T12:17:31.723Z,8.34
2023-03-02T12:20:28.907Z,8.38
2023-03-02T12:23:11.366Z,8.60
2023-03-02T12:25:43.950Z,8.46
2023-03-02T12:28:27.935Z,8.68
2023-03-02T12:31:04.241Z,8.30
2023-03-02T12:33:32.461Z,8.31
2023-03-02T12:36:13.906Z,8.24
2023-03-02T12:38:42.629Z,8.30
2023-03-02T12:41:40.378Z,8.30
2023-03-02T12:44:28.266Z,8.41
2023-03-02T12:46:57.871Z,8.23
2023-03-02T12:49:37.593Z,8.39
2023-03-02T12:52:23.839Z,8.38
2023-03-02T12:55:05.672Z,8.55
2023-03-02T12:57:33.775Z,8.50
2023-03-02T13:00:06.912Z,8.42
2023-03-02T13:02:39.840Z,8.45
2023-03-02T13:05:09.313Z,8.55
2023-03-02T13:07:41.266Z,8.62
2023-03-02T13:10:16.142Z,8.67
2023-03-02T13:12:45.913Z,8.63
2023-03-02T13:15:16.804Z,8.75
2023-03-02T13:17:45.434Z,8.65
2023-03-02T13:20:14.919Z,8.65
2023-03-02T13:22:44.817Z,8.80
2023-03-02T13:25:23.380Z,8.85
2023-03-02T13:27:55.470Z,8.74
2023-03-02T13:30:27.501Z,8.76
2023-03-02T13:32:59.586Z,8.91
2023-03-02T13:35:28.307Z,8.78
2023-03-02T13:38:01.767Z,9.01
2023-03-02T13:40:35.556Z,9.07
2023-03-02T13:43:08.908Z,9.09
2023-03-02T13:45:38.208Z,8.84
2023-03-02T13:48:15.507Z,8.90
2023-03-02T13:50:52.712Z,9.01
2023-03-02T13:53:22.183Z,9.06
2023-03-02T13:55:50.281Z,9.12
2023-03-02T13:58:19.298Z,8.95
2023-03-02T14:00:47.378Z,9.05
2023-03-02T14:03:26.321Z,9.03
2023-03-02T14:05:54.472Z,9.02
2023-03-02T14:08:23.920Z,8.97
2023-03-02T14:10:53.291Z,8.98
2023-03-02T14:13:23.963Z,9.13
2023-03-02T14:15:53.967Z,9.13
2023-03-02T14:18:32.259Z,9.08
2023-03-02T14:21:00.432Z,9.14
2023-03-02T14:23:30.108Z,9.21
2023-03-02T14:25:58.184Z,9.30
2023-03-02T14:28:33.456Z,9.14
2023-03-02T14:31:01.855Z,9.17
2023-03-02T14:33:31.226Z,9.35
2023-03-02T14:35:59.605Z,9.02
2023-03-02T14:38:31.390Z,9.06
2023-03-02T14:40:59.639Z,8.97
2023-03-02T14:43:27.828Z,8.84
2023-03-02T14:45:56.150Z,8.96
2023-03-02T14:48:24.659Z,8.86
2023-03-02T14:50:52.824Z,8.98
2023-03-02T14:53:30.592Z,8.82
2023-03-02T14:55:58.988Z,8.82
2023-03-02T14:58:31.154Z,8.72
2023-03-02T15:00:59.304Z,8.91
2023-03-02T15:03:28.504Z,8.97
2023-03-02T15:06:02.062Z,8.85
2023-03-02T15:08:32.265Z,8.92
2023-03-02T15:11:00.482Z,8.93
2023-03-02T15:13:28.547Z,8.96
2023-03-02T15:15:58.651Z,8.79
2023-03-02T15:18:26.860Z,8.86
2023-03-02T15:20:55.266Z,8.71
2023-03-02T15:23:23.587Z,8.61
2023-03-02T15:25:53.490Z,8.65
2023-03-02T15:28:21.644Z,8.47
2023-03-02T15:30:50.260Z,8.59
2023-03-02T15:33:18.561Z,8.50
2023-03-02T15:35:46.830Z,8.61
2023-03-02T15:38:16.623Z,8.65
2023-03-02T15:40:45.152Z,8.57
2023-03-02T15:43:14.767Z,8.36
2023-03-02T15:45:46.389Z,8.39
2023-03-02T15:48:14.406Z,8.31
2023-03-02T15:50:43.111Z,8.24
2023-03-02T15:53:12.411Z,8.16
2023-03-02T15:55:42.368Z,8.17
2023-03-02T15:58:10.626Z,8.09
2023-03-02T16:00:41.016Z,8.00
2023-03-02T16:03:10.276Z,7.89
2023-03-02T16:05:44.003Z,7.79
2023-03-02T16:08:12.046Z,7.82
2023-03-02T16:10:43.116Z,7.75
2023-03-02T16:13:11.467Z,7.71
2023-03-02T16:15:41.666Z,7.63
2023-03-02T16:18:09.664Z,7.61
2023-03-02T16:20:38.408Z,7.53
2023-03-02T16:23:07.958Z,7.54
2023-03-02T16:25:36.855Z,7.39
2023-03-02T16:28:05.604Z,7.42
2023-03-02T16:30:36.228Z,7.35
2023-03-02T16:33:08.545Z,7.29
2023-03-02T16:35:37.141Z,7.19
2023-03-02T16:38:06.560Z,7.22
2023-03-02T16:40:41.748Z,7.10
2023-03-02T16:43:20.537Z,6.97
2023-03-02T16:45:50.120Z,6.88
2023-03-02T16:48:19.583Z,6.96
2023-03-02T16:50:49.421Z,6.82
2023-03-02T16:53:19.448Z,6.82
2023-03-02T16:55:48.637Z,6.72
2023-03-02T16:58:17.429Z,6.69
2023-03-02T17:00:46.086Z,6.59
2023-03-02T17:03:14.510Z,6.49
2023-03-02T17:05:44.331Z,6.48
2023-03-02T17:08:12.667Z,6.38
2023-03-02T17:10:41.196Z,6.36
2023-03-02T17:13:09.658Z,6.31
2023-03-02T17:15:38.459Z,6.31
2023-03-02T17:18:06.947Z,6.23
2023-03-02T17:20:35.889Z,6.17
2023-03-02T17:23:06.091Z,6.14
2023-03-02T17:25:34.237Z,6.08
2023-03-02T17:28:02.563Z,6.04
2023-03-02T17:30:30.720Z,5.99
2023-03-02T17:32:59.078Z,5.88
2023-03-02T17:35:27.076Z,5.83
2023-03-02T17:37:55.359Z,5.79
2023-03-02T17:40:26.172Z,5.82
2023-03-02T17:42:57.382Z,5.73
2023-03-02T17:45:27.065Z,5.59
2023-03-02T17:47:55.601Z,5.51
2023-03-02T17:50:23.874Z,5.46
2023-03-02T17:52:51.951Z,5.39
2023-03-02T17:55:20.046Z,5.44
2023-03-02T17:57:49.544Z,5.30
2023-03-02T18:00:19.367Z,5.22
2023-03-02T18:02:48.002Z,5.23
2023-03-02T18:05:16.095Z,5.19
2023-03-02T18:07:46.046Z,5.14
2023-03-02T18:10:14.105Z,5.06
2023-03-02T18:12:42.147Z,5.07
2023-03-02T18:15:12.904Z,4.99
2023-03-02T18:17:41.098Z,4.96
2023-03-02T18:20:10.045Z,4.93
2023-03-02T18:22:38.146Z,4.80
2023-03-02T18:25:07.066Z,4.79
2023-03-02T18:27:35.113Z,4.68
2023-03-02T18:30:03.710Z,4.66
2023-03-02T18:32:33.473Z,4.61
2023-03-02T18:35:04.803Z,4.55
2023-03-02T18:37:34.094Z,4.56
2023-03-02T18:40:02.527Z,4.56
2023-03-02T18:42:31.422Z,4.45
2023-03-02T18:44:59.745Z,4.39
2023-03-02T18:47:28.312Z,4.28
2023-03-02T18:49:58.652Z,4.29
2023-03-02T18:52:26.679Z,4.20
2023-03-02T18:54:57.846Z,4.23
2023-03-02T18:57:26.051Z,4.04
2023-03-02T18:59:54.203Z,4.02
2023-03-02T19:02:22.401Z,3.86
2023-03-02T19:04:50.569Z,3.86
2023-03-02T19:07:20.100Z,3.79
2023-03-02T19:09:48.668Z,3.76
2023-03-02T19:12:18.550Z,3.68
2023-03-02T19:14:46.803Z,3.58
2023-03-02T19:17:15.293Z,3.57
2023-03-02T19:19:44.523Z,3.49
2023-03-02T19:22:12.567Z,3.43
2023-03-02T19:24:43.264Z,3.51
2023-03-02T19:27:11.801Z,3.34
2023-03-02T19:29:39.870Z,3.35
2023-03-02T19:32:08.441Z,3.32
2023-03-02T19:34:37.957Z,3.25
2023-03-02T19:37:06.231Z,3.17
2023-03-02T19:39:35.056Z,3.25
2023-03-02T19:42:04.928Z,3.21
2023-03-02T19:44:33.239Z,3.09
2023-03-02T19:47:03.068Z,3.09
2023-03-02T19:49:31.077Z,3.06
2023-03-02T19:51:59.107Z,3.08
2023-03-02T19:54:27.159Z,2.95
2023-03-02T19:56:55.310Z,3.04
2023-03-02T19:59:25.080Z,2.90
2023-03-02T20:01:55.259Z,2.89
2023-03-02T20:04:23.363Z,2.92
2023-03-02T20:06:51.428Z,2.82
2023-03-02T20:09:20.560Z,2.82
2023-03-02T20:11:50.726Z,2.74
2023-03-02T20:14:32.751Z,2.77
2023-03-02T20:17:03.272Z,2.76
2023-03-02T20:19:32.297Z,2.71
2023-03-02T20:22:02.826Z,2.67
2023-03-02T20:24:31.345Z,2.55
2023-03-02T20:26:59.938Z,2.50
2023-03-02T20:29:28.028Z,2.56
2023-03-02T20:31:57.224Z,2.46
2023-03-02T20:34:26.668Z,2.44
2023-03-02T20:36:54.912Z,2.45
2023-03-02T20:39:24.661Z,2.49
2023-03-02T20:41:52.695Z,2.39
2023-03-02T20:44:21.022Z,2.35
2023-03-02T20:46:53.220Z,2.27
2023-03-02T20:49:21.511Z,2.23
2023-03-02T20:51:54.620Z,2.22
2023-03-02T20:54:23.647Z,2.36
2023-03-02T20:56:51.735Z,2.24
2023-03-02T20:59:19.818Z,2.05
2023-03-02T21:01:48.194Z,2.08
2023-03-02T21:04:16.729Z,2.02
2023-03-02T21:06:46.569Z,1.95
2023-03-02T21:09:17.042Z,1.92
2023-03-02T21:11:45.636Z,1.83
2023-03-02T21:14:14.570Z,1.82
2023-03-02T21:16:43.679Z,1.75
2023-03-02T21:19:13.867Z,1.69
2023-03-02T21:21:42.630Z,1.65
2023-03-02T21:24:11.109Z,1.55
2023-03-02T21:26:41.573Z,1.67
2023-03-02T21:29:13.120Z,1.52
2023-03-02T21:31:43.263Z,1.51
2023-03-02T21:34:11.761Z,1.45
2023-03-02T21:36:39.863Z,1.46
2023-03-02T21:39:07.971Z,1.43
2023-03-02T21:41:40.425Z,1.41
2023-03-02T21:44:08.745Z,1.39
2023-03-02T21:46:37.246Z,1.44
2023-03-02T21:49:05.324Z,1.40
2023-03-02T21:51:33.557Z,1.39
2023-03-02T21:54:01.687Z,1.39
2023-03-02T21:56:29.764Z,1.35
2023-03-02T21:58:59.186Z,1.40
2023-03-02T22:01:27.516Z,1.44
2023-03-02T22:03:55.773Z,1.24
2023-03-02T22:06:24.698Z,1.38
2023-03-02T22:08:52.732Z,1.42
2023-03-02T22:11:23.038Z,1.45
2023-03-02T22:13:51.426Z,1.28
2023-03-02T22:16:22.264Z,1.18
2023-03-02T22:18:52.166Z,1.10
2023-03-02T22:21:30.065Z,1.09
2023-03-02T22:24:01.775Z,1.05
2023-03-02T22:26:29.927Z,1.04
2023-03-02T22:28:59.727Z,0.99
2023-03-02T22:31:29.333Z,0.80
2023-03-02T22:33:57.354Z,0.72
2023-03-02T22:36:25.688Z,0.75
2023-03-02T22:38:53.732Z,0.65
2023-03-02T22:41:21.756Z,0.73
2023-03-02T22:43:52.942Z,0.69
2023-03-02T22:46:21.942Z,0.63
2023-03-02T22:48:52.258Z,0.66
2023-03-02T22:51:21.130Z,0.60
2023-03-02T22:53:50.306Z,0.59
2023-03-02T22:56:28.519Z,0.61
2023-03-02T22:58:56.938Z,0.47
2023-03-02T23:01:25.530Z,0.42
2023-03-02T23:03:55.589Z,0.36
2023-03-02T23:06:28.792Z,0.22
2023-03-02T23:08:57.684Z,0.29
2023-03-02T23:11:25.829Z,0.19
2023-03-02T23:13:53.972Z,0.28
2023-03-02T23:16:23.088Z,0.23
2023-03-02T23:18:51.422Z,0.26
2023-03-02T23:21:22.467Z,0.29
2023-03-02T23:23:51.146Z,0.34
2023-03-02T23:26:19.904Z,0.43
2023-03-02T23:28:48.997Z,0.34
2023-03-02T23:31:18.352Z,0.40
2023-03-02T23:33:46.737Z,0.48
2023-03-02T23:36:14.935Z,0.52
2023-03-02T23:38:44.451Z,0.50
2023-03-02T23:41:12.497Z,0.50
2023-03-02T23:43:40.978Z,0.41
2023-03-02T23:46:13.897Z,0.54
2023-03-02T23:48:42.204Z,0.41
2023-03-02T23:51:10.340Z,0.47
2023-03-02T23:53:39.117Z,0.37
2023-03-02T23:56:09.009Z,0.37
2023-03-02T23:58:37.089Z,0.42
